sensor_id;sensor_type;location;lat;lon;timestamp;P1;durP1;ratioP1;P2;durP2;ratioP2
63201;SDS011;49296;48.188;11.566;2023-03-29T00:01:33;5.38;;;3.08;;
63201;SDS011;49296;48.188;11.566;2023-03-29T00:04:00;6.03;;;3.30;;
63201;SDS011;49296;48.188;11.566;2023-03-29T00:06:27;4.55;;;2.70;;
63201;SDS011;49296;48.188;11.566;2023-03-29T00:08:58;5.00;;;2.67;;
63201;SDS011;49296;48.188;11.566;2023-03-29T00:11:29;5.25;;;2.65;;
63201;SDS011;49296;48.188;11.566;2023-03-29T00:13:55;6.05;;;2.83;;
63201;SDS011;49296;48.188;11.566;2023-03-29T00:16:22;4.28;;;2.40;;
63201;SDS011;49296;48.188;11.566;2023-03-29T00:18:49;7.03;;;3.38;;
63201;SDS011;49296;48.188;11.566;2023-03-29T00:21:15;6.30;;;3.55;;
63201;SDS011;49296;48.188;11.566;2023-03-29T00:23:42;6.35;;;3.10;;
63201;SDS011;49296;48.188;11.566;2023-03-29T00:26:11;5.63;;;2.97;;
63201;SDS011;49296;48.188;11.566;2023-03-29T00:28:38;8.23;;;3.40;;
63201;SDS011;49296;48.188;11.566;2023-03-29T00:31:05;5.63;;;3.03;;
63201;SDS011;49296;48.188;11.566;2023-03-29T00:33:33;6.07;;;2.97;;
63201;SDS011;49296;48.188;11.566;2023-03-29T00:36:00;7.35;;;3.13;;
63201;SDS011;49296;48.188;11.566;2023-03-29T00:38:27;5.13;;;2.90;;
63201;SDS011;49296;48.188;11.566;2023-03-29T00:40:54;6.15;;;3.10;;
63201;SDS011;49296;48.188;11.566;2023-03-29T00:43:23;5.35;;;2.95;;
63201;SDS011;49296;48.188;11.566;2023-03-29T00:45:50;5.22;;;2.60;;
63201;SDS011;49296;48.188;11.566;2023-03-29T00:48:17;5.40;;;2.55;;
63201;SDS011;49296;48.188;11.566;2023-03-29T00:50:47;6.57;;;2.70;;
63201;SDS011;49296;48.188;11.566;2023-03-29T00:53:17;5.43;;;2.95;;
63201;SDS011;49296;48.188;11.566;2023-03-29T00:55:47;4.07;;;2.00;;
63201;SDS011;49296;48.188;11.566;2023-03-29T00:58:19;4.47;;;2.25;;
63201;SDS011;49296;48.188;11.566;2023-03-29T01:00:53;4.25;;;1.90;;
63201;SDS011;49296;48.188;11.566;2023-03-29T01:03:26;3.95;;;1.77;;
63201;SDS011;49296;48.188;11.566;2023-03-29T01:08:26;2.58;;;1.35;;
63201;SDS011;49296;48.188;11.566;2023-03-29T01:10:58;4.05;;;1.60;;
63201;SDS011;49296;48.188;11.566;2023-03-29T01:13:33;2.13;;;1.27;;
63201;SDS011;49296;48.188;11.566;2023-03-29T01:16:03;3.45;;;2.13;;
63201;SDS011;49296;48.188;11.566;2023-03-29T01:18:35;5.00;;;1.95;;
63201;SDS011;49296;48.188;11.566;2023-03-29T01:21:13;3.40;;;1.60;;
63201;SDS011;49296;48.188;11.566;2023-03-29T01:24:01;4.97;;;1.90;;
63201;SDS011;49296;48.188;11.566;2023-03-29T01:27:00;3.35;;;1.50;;
63201;SDS011;49296;48.188;11.566;2023-03-29T01:29:32;3.60;;;1.88;;
63201;SDS011;49296;48.188;11.566;2023-03-29T01:32:02;4.75;;;1.77;;
63201;SDS011;49296;48.188;11.566;2023-03-29T01:34:34;4.47;;;2.35;;
63201;SDS011;49296;48.188;11.566;2023-03-29T01:37:07;3.63;;;1.90;;
63201;SDS011;49296;48.188;11.566;2023-03-29T01:39:39;5.97;;;2.50;;
63201;SDS011;49296;48.188;11.566;2023-03-29T01:42:12;5.05;;;2.60;;
63201;SDS011;49296;48.188;11.566;2023-03-29T01:44:48;6.28;;;2.72;;
63201;SDS011;49296;48.188;11.566;2023-03-29T01:47:23;6.03;;;2.95;;
63201;SDS011;49296;48.188;11.566;2023-03-29T01:49:56;6.40;;;2.70;;
63201;SDS011;49296;48.188;11.566;2023-03-29T01:52:30;5.60;;;2.97;;
63201;SDS011;49296;48.188;11.566;2023-03-29T01:55:02;6.20;;;3.30;;
63201;SDS011;49296;48.188;11.566;2023-03-29T01:57:34;6.15;;;2.97;;
63201;SDS011;49296;48.188;11.566;2023-03-29T02:00:05;5.82;;;3.20;;
63201;SDS011;49296;48.188;11.566;2023-03-29T02:02:34;4.80;;;2.30;;
63201;SDS011;49296;48.188;11.566;2023-03-29T02:05:04;5.00;;;2.40;;
63201;SDS011;49296;48.188;11.566;2023-03-29T02:07:34;4.53;;;2.40;;
63201;SDS011;49296;48.188;11.566;2023-03-29T02:10:02;5.43;;;2.38;;
63201;SDS011;49296;48.188;11.566;2023-03-29T02:12:30;3.90;;;1.90;;
63201;SDS011;49296;48.188;11.566;2023-03-29T02:14:58;3.83;;;1.85;;
63201;SDS011;49296;48.188;11.566;2023-03-29T02:17:26;3.40;;;1.83;;
63201;SDS011;49296;48.188;11.566;2023-03-29T02:19:54;3.28;;;1.60;;
63201;SDS011;49296;48.188;11.566;2023-03-29T02:22:25;4.05;;;1.80;;
63201;SDS011;49296;48.188;11.566;2023-03-29T02:24:58;4.05;;;1.60;;
63201;SDS011;49296;48.188;11.566;2023-03-29T02:27:28;3.15;;;1.55;;
63201;SDS011;49296;48.188;11.566;2023-03-29T02:29:55;4.72;;;2.63;;
63201;SDS011;49296;48.188;11.566;2023-03-29T02:32:25;3.95;;;1.60;;
63201;SDS011;49296;48.188;11.566;2023-03-29T02:34:59;4.97;;;2.10;;
63201;SDS011;49296;48.188;11.566;2023-03-29T02:37:30;3.15;;;1.50;;
63201;SDS011;49296;48.188;11.566;2023-03-29T02:40:00;3.28;;;1.77;;
63201;SDS011;49296;48.188;11.566;2023-03-29T02:42:37;2.92;;;1.23;;
63201;SDS011;49296;48.188;11.566;2023-03-29T02:45:05;2.88;;;1.15;;
63201;SDS011;49296;48.188;11.566;2023-03-29T02:47:36;2.88;;;1.40;;
63201;SDS011;49296;48.188;11.566;2023-03-29T02:52:33;3.15;;;1.40;;
63201;SDS011;49296;48.188;11.566;2023-03-29T02:55:03;3.95;;;1.48;;
63201;SDS011;49296;48.188;11.566;2023-03-29T02:57:35;3.95;;;1.40;;
63201;SDS011;49296;48.188;11.566;2023-03-29T03:00:03;2.92;;;1.25;;
63201;SDS011;49296;48.188;11.566;2023-03-29T03:02:34;2.75;;;1.30;;
63201;SDS011;49296;48.188;11.566;2023-03-29T03:05:02;4.30;;;1.65;;
63201;SDS011;49296;48.188;11.566;2023-03-29T03:07:30;3.08;;;1.25;;
63201;SDS011;49296;48.188;11.566;2023-03-29T03:09:57;3.45;;;1.30;;
63201;SDS011;49296;48.188;11.566;2023-03-29T03:12:24;2.50;;;1.17;;
63201;SDS011;49296;48.188;11.566;2023-03-29T03:14:51;3.38;;;1.50;;
63201;SDS011;49296;48.188;11.566;2023-03-29T03:17:18;2.95;;;1.33;;
63201;SDS011;49296;48.188;11.566;2023-03-29T03:19:48;3.90;;;1.23;;
63201;SDS011;49296;48.188;11.566;2023-03-29T03:22:15;3.20;;;1.40;;
63201;SDS011;49296;48.188;11.566;2023-03-29T03:24:41;2.78;;;1.48;;
63201;SDS011;49296;48.188;11.566;2023-03-29T03:27:10;3.47;;;1.45;;
63201;SDS011;49296;48.188;11.566;2023-03-29T03:29:37;4.05;;;1.95;;
63201;SDS011;49296;48.188;11.566;2023-03-29T03:32:05;2.65;;;1.40;;
63201;SDS011;49296;48.188;11.566;2023-03-29T03:34:32;3.00;;;1.40;;
63201;SDS011;49296;48.188;11.566;2023-03-29T03:37:01;2.90;;;1.40;;
63201;SDS011;49296;48.188;11.566;2023-03-29T03:39:27;3.83;;;1.38;;
63201;SDS011;49296;48.188;11.566;2023-03-29T03:41:54;3.15;;;1.50;;
63201;SDS011;49296;48.188;11.566;2023-03-29T03:44:21;3.40;;;1.50;;
63201;SDS011;49296;48.188;11.566;2023-03-29T03:46:47;3.55;;;1.65;;
63201;SDS011;49296;48.188;11.566;2023-03-29T03:49:15;3.47;;;1.35;;
63201;SDS011;49296;48.188;11.566;2023-03-29T03:51:41;3.58;;;1.40;;
63201;SDS011;49296;48.188;11.566;2023-03-29T03:54:10;3.53;;;1.40;;
63201;SDS011;49296;48.188;11.566;2023-03-29T03:56:37;3.38;;;1.40;;
63201;SDS011;49296;48.188;11.566;2023-03-29T03:59:04;3.08;;;1.58;;
63201;SDS011;49296;48.188;11.566;2023-03-29T04:01:31;5.65;;;1.52;;
63201;SDS011;49296;48.188;11.566;2023-03-29T04:03:59;4.57;;;1.48;;
63201;SDS011;49296;48.188;11.566;2023-03-29T04:06:26;5.15;;;1.60;;
63201;SDS011;49296;48.188;11.566;2023-03-29T04:08:54;3.30;;;1.55;;
63201;SDS011;49296;48.188;11.566;2023-03-29T04:11:23;5.50;;;2.00;;
63201;SDS011;49296;48.188;11.566;2023-03-29T04:13:49;4.45;;;1.60;;
63201;SDS011;49296;48.188;11.566;2023-03-29T04:16:16;3.13;;;1.55;;
63201;SDS011;49296;48.188;11.566;2023-03-29T04:18:43;2.80;;;1.52;;
63201;SDS011;49296;48.188;11.566;2023-03-29T04:21:10;4.30;;;1.52;;
63201;SDS011;49296;48.188;11.566;2023-03-29T04:23:36;4.18;;;1.67;;
63201;SDS011;49296;48.188;11.566;2023-03-29T04:26:03;4.20;;;1.88;;
63201;SDS011;49296;48.188;11.566;2023-03-29T04:28:31;3.65;;;1.60;;
63201;SDS011;49296;48.188;11.566;2023-03-29T04:30:58;3.42;;;1.60;;
63201;SDS011;49296;48.188;11.566;2023-03-29T04:33:25;4.60;;;1.52;;
63201;SDS011;49296;48.188;11.566;2023-03-29T04:35:53;3.65;;;1.48;;
63201;SDS011;49296;48.188;11.566;2023-03-29T04:38:20;4.22;;;1.80;;
63201;SDS011;49296;48.188;11.566;2023-03-29T04:40:47;3.85;;;2.15;;
63201;SDS011;49296;48.188;11.566;2023-03-29T04:43:13;2.33;;;1.13;;
63201;SDS011;49296;48.188;11.566;2023-03-29T04:45:41;4.22;;;1.67;;
63201;SDS011;49296;48.188;11.566;2023-03-29T04:48:08;4.30;;;1.90;;
63201;SDS011;49296;48.188;11.566;2023-03-29T04:50:35;4.07;;;1.80;;
63201;SDS011;49296;48.188;11.566;2023-03-29T04:53:02;5.07;;;1.90;;
63201;SDS011;49296;48.188;11.566;2023-03-29T04:55:28;5.65;;;2.30;;
63201;SDS011;49296;48.188;11.566;2023-03-29T04:57:55;5.30;;;2.17;;
63201;SDS011;49296;48.188;11.566;2023-03-29T05:00:22;5.38;;;2.50;;
63201;SDS011;49296;48.188;11.566;2023-03-29T05:02:52;7.28;;;3.10;;
63201;SDS011;49296;48.188;11.566;2023-03-29T05:05:19;6.97;;;2.67;;
63201;SDS011;49296;48.188;11.566;2023-03-29T05:07:46;5.68;;;2.70;;
63201;SDS011;49296;48.188;11.566;2023-03-29T05:10:12;6.90;;;2.95;;
63201;SDS011;49296;48.188;11.566;2023-03-29T05:12:40;5.60;;;2.25;;
63201;SDS011;49296;48.188;11.566;2023-03-29T05:15:07;5.07;;;1.70;;
63201;SDS011;49296;48.188;11.566;2023-03-29T05:17:34;4.95;;;1.60;;
63201;SDS011;49296;48.188;11.566;2023-03-29T05:20:02;3.10;;;1.50;;
63201;SDS011;49296;48.188;11.566;2023-03-29T05:22:33;3.63;;;1.40;;
63201;SDS011;49296;48.188;11.566;2023-03-29T05:25:02;5.57;;;1.65;;
63201;SDS011;49296;48.188;11.566;2023-03-29T05:27:29;3.38;;;1.20;;
63201;SDS011;49296;48.188;11.566;2023-03-29T05:29:56;3.75;;;1.27;;
63201;SDS011;49296;48.188;11.566;2023-03-29T05:32:22;4.28;;;1.50;;
63201;SDS011;49296;48.188;11.566;2023-03-29T05:34:49;4.50;;;1.40;;
63201;SDS011;49296;48.188;11.566;2023-03-29T05:37:18;4.28;;;1.30;;
63201;SDS011;49296;48.188;11.566;2023-03-29T05:39:45;4.90;;;1.15;;
63201;SDS011;49296;48.188;11.566;2023-03-29T05:42:13;3.38;;;1.10;;
63201;SDS011;49296;48.188;11.566;2023-03-29T05:44:40;3.88;;;1.48;;
63201;SDS011;49296;48.188;11.566;2023-03-29T05:47:07;3.67;;;1.35;;
63201;SDS011;49296;48.188;11.566;2023-03-29T05:49:33;2.80;;;1.27;;
63201;SDS011;49296;48.188;11.566;2023-03-29T05:52:02;4.35;;;1.33;;
63201;SDS011;49296;48.188;11.566;2023-03-29T05:54:32;1.92;;;1.00;;
63201;SDS011;49296;48.188;11.566;2023-03-29T05:56:58;3.65;;;1.20;;
63201;SDS011;49296;48.188;11.566;2023-03-29T05:59:25;3.97;;;1.33;;
63201;SDS011;49296;48.188;11.566;2023-03-29T06:01:53;4.88;;;1.38;;
63201;SDS011;49296;48.188;11.566;2023-03-29T06:04:21;3.17;;;1.42;;
63201;SDS011;49296;48.188;11.566;2023-03-29T06:06:48;4.65;;;1.40;;
63201;SDS011;49296;48.188;11.566;2023-03-29T06:09:15;5.35;;;1.48;;
63201;SDS011;49296;48.188;11.566;2023-03-29T06:11:43;3.92;;;1.13;;
63201;SDS011;49296;48.188;11.566;2023-03-29T06:14:10;4.32;;;1.27;;
63201;SDS011;49296;48.188;11.566;2023-03-29T06:16:37;3.65;;;1.40;;
63201;SDS011;49296;48.188;11.566;2023-03-29T06:19:04;2.85;;;0.85;;
63201;SDS011;49296;48.188;11.566;2023-03-29T06:21:31;2.97;;;1.10;;
63201;SDS011;49296;48.188;11.566;2023-03-29T06:23:58;2.38;;;1.00;;
63201;SDS011;49296;48.188;11.566;2023-03-29T06:26:25;2.75;;;1.02;;
63201;SDS011;49296;48.188;11.566;2023-03-29T06:28:54;2.50;;;1.13;;
63201;SDS011;49296;48.188;11.566;2023-03-29T06:31:21;2.38;;;1.20;;
63201;SDS011;49296;48.188;11.566;2023-03-29T06:33:48;3.47;;;1.40;;
63201;SDS011;49296;48.188;11.566;2023-03-29T06:36:15;2.15;;;1.20;;
63201;SDS011;49296;48.188;11.566;2023-03-29T06:38:42;3.55;;;1.45;;
63201;SDS011;49296;48.188;11.566;2023-03-29T06:41:10;5.97;;;1.52;;
63201;SDS011;49296;48.188;11.566;2023-03-29T06:43:36;5.22;;;1.48;;
63201;SDS011;49296;48.188;11.566;2023-03-29T06:46:05;5.75;;;1.50;;
63201;SDS011;49296;48.188;11.566;2023-03-29T06:48:35;2.92;;;1.27;;
63201;SDS011;49296;48.188;11.566;2023-03-29T06:51:02;3.58;;;1.38;;
63201;SDS011;49296;48.188;11.566;2023-03-29T06:53:29;5.05;;;1.15;;
63201;SDS011;49296;48.188;11.566;2023-03-29T06:55:56;2.53;;;1.00;;
63201;SDS011;49296;48.188;11.566;2023-03-29T06:58:23;3.15;;;1.23;;
63201;SDS011;49296;48.188;11.566;2023-03-29T07:00:50;4.18;;;1.30;;
63201;SDS011;49296;48.188;11.566;2023-03-29T07:03:19;3.78;;;1.30;;
63201;SDS011;49296;48.188;11.566;2023-03-29T07:05:47;3.65;;;1.63;;
63201;SDS011;49296;48.188;11.566;2023-03-29T07:08:16;4.25;;;1.75;;
63201;SDS011;49296;48.188;11.566;2023-03-29T07:10:45;4.70;;;1.50;;
63201;SDS011;49296;48.188;11.566;2023-03-29T07:13:13;2.15;;;1.00;;
63201;SDS011;49296;48.188;11.566;2023-03-29T07:15:42;5.28;;;1.67;;
63201;SDS011;49296;48.188;11.566;2023-03-29T07:18:09;4.38;;;1.40;;
63201;SDS011;49296;48.188;11.566;2023-03-29T07:20:38;4.55;;;1.63;;
63201;SDS011;49296;48.188;11.566;2023-03-29T07:23:06;5.22;;;1.20;;
63201;SDS011;49296;48.188;11.566;2023-03-29T07:25:34;4.80;;;1.30;;
63201;SDS011;49296;48.188;11.566;2023-03-29T07:28:01;2.60;;;1.50;;
63201;SDS011;49296;48.188;11.566;2023-03-29T07:30:31;3.47;;;1.40;;
63201;SDS011;49296;48.188;11.566;2023-03-29T07:32:58;2.25;;;1.05;;
63201;SDS011;49296;48.188;11.566;2023-03-29T07:35:25;3.70;;;1.63;;
63201;SDS011;49296;48.188;11.566;2023-03-29T07:37:53;2.92;;;1.10;;
63201;SDS011;49296;48.188;11.566;2023-03-29T07:40:20;2.78;;;1.30;;
63201;SDS011;49296;48.188;11.566;2023-03-29T07:42:48;3.58;;;1.13;;
63201;SDS011;49296;48.188;11.566;2023-03-29T07:45:16;3.97;;;1.15;;
63201;SDS011;49296;48.188;11.566;2023-03-29T07:47:45;3.30;;;1.20;;
63201;SDS011;49296;48.188;11.566;2023-03-29T07:50:15;2.33;;;1.20;;
63201;SDS011;49296;48.188;11.566;2023-03-29T07:52:42;2.88;;;1.20;;
63201;SDS011;49296;48.188;11.566;2023-03-29T07:55:13;5.72;;;1.17;;
63201;SDS011;49296;48.188;11.566;2023-03-29T07:57:41;3.15;;;1.33;;
63201;SDS011;49296;48.188;11.566;2023-03-29T08:00:08;3.38;;;1.42;;
63201;SDS011;49296;48.188;11.566;2023-03-29T08:02:38;3.63;;;1.02;;
63201;SDS011;49296;48.188;11.566;2023-03-29T08:05:06;3.85;;;1.38;;
63201;SDS011;49296;48.188;11.566;2023-03-29T08:07:34;2.15;;;1.05;;
63201;SDS011;49296;48.188;11.566;2023-03-29T08:10:00;4.13;;;1.20;;
63201;SDS011;49296;48.188;11.566;2023-03-29T08:12:29;3.13;;;1.00;;
63201;SDS011;49296;48.188;11.566;2023-03-29T08:14:56;4.32;;;1.13;;
63201;SDS011;49296;48.188;11.566;2023-03-29T08:17:22;2.50;;;1.30;;
63201;SDS011;49296;48.188;11.566;2023-03-29T08:19:49;5.35;;;1.80;;
63201;SDS011;49296;48.188;11.566;2023-03-29T08:22:16;2.67;;;1.20;;
63201;SDS011;49296;48.188;11.566;2023-03-29T08:24:43;4.18;;;1.30;;
63201;SDS011;49296;48.188;11.566;2023-03-29T08:27:10;4.05;;;1.42;;
63201;SDS011;49296;48.188;11.566;2023-03-29T08:29:38;3.55;;;1.10;;
63201;SDS011;49296;48.188;11.566;2023-03-29T08:32:05;4.22;;;1.50;;
63201;SDS011;49296;48.188;11.566;2023-03-29T08:34:32;2.83;;;1.30;;
63201;SDS011;49296;48.188;11.566;2023-03-29T08:36:59;3.20;;;1.20;;
63201;SDS011;49296;48.188;11.566;2023-03-29T08:39:27;3.03;;;1.40;;
63201;SDS011;49296;48.188;11.566;2023-03-29T08:41:56;4.47;;;1.58;;
63201;SDS011;49296;48.188;11.566;2023-03-29T08:44:47;4.40;;;1.33;;
63201;SDS011;49296;48.188;11.566;2023-03-29T08:47:24;2.35;;;1.08;;
63201;SDS011;49296;48.188;11.566;2023-03-29T08:49:59;5.88;;;1.33;;
63201;SDS011;49296;48.188;11.566;2023-03-29T08:55:15;3.85;;;1.48;;
63201;SDS011;49296;48.188;11.566;2023-03-29T08:57:53;3.03;;;1.40;;
63201;SDS011;49296;48.188;11.566;2023-03-29T09:00:31;4.28;;;1.58;;
63201;SDS011;49296;48.188;11.566;2023-03-29T09:03:09;3.72;;;1.20;;
63201;SDS011;49296;48.188;11.566;2023-03-29T09:05:45;2.83;;;1.30;;
63201;SDS011;49296;48.188;11.566;2023-03-29T09:08:14;5.32;;;1.50;;
63201;SDS011;49296;48.188;11.566;2023-03-29T09:10:43;3.33;;;1.27;;
63201;SDS011;49296;48.188;11.566;2023-03-29T09:13:19;2.17;;;1.08;;
63201;SDS011;49296;48.188;11.566;2023-03-29T09:15:59;3.85;;;1.20;;
63201;SDS011;49296;48.188;11.566;2023-03-29T09:18:34;4.88;;;1.30;;
63201;SDS011;49296;48.188;11.566;2023-03-29T09:21:13;3.33;;;1.35;;
63201;SDS011;49296;48.188;11.566;2023-03-29T09:26:34;5.07;;;1.33;;
63201;SDS011;49296;48.188;11.566;2023-03-29T09:29:12;4.43;;;1.20;;
63201;SDS011;49296;48.188;11.566;2023-03-29T09:31:52;3.78;;;1.40;;
63201;SDS011;49296;48.188;11.566;2023-03-29T09:34:21;2.42;;;1.00;;
63201;SDS011;49296;48.188;11.566;2023-03-29T09:36:53;4.47;;;1.50;;
63201;SDS011;49296;48.188;11.566;2023-03-29T09:39:25;3.10;;;1.10;;
63201;SDS011;49296;48.188;11.566;2023-03-29T09:41:53;4.65;;;1.48;;
63201;SDS011;49296;48.188;11.566;2023-03-29T09:44:24;4.22;;;1.30;;
63201;SDS011;49296;48.188;11.566;2023-03-29T09:46:57;5.47;;;1.45;;
63201;SDS011;49296;48.188;11.566;2023-03-29T09:49:28;4.32;;;1.40;;
63201;SDS011;49296;48.188;11.566;2023-03-29T09:51:59;4.78;;;1.15;;
63201;SDS011;49296;48.188;11.566;2023-03-29T09:56:56;2.72;;;1.00;;
63201;SDS011;49296;48.188;11.566;2023-03-29T09:59:23;3.33;;;1.50;;
63201;SDS011;49296;48.188;11.566;2023-03-29T10:01:50;3.58;;;1.23;;
63201;SDS011;49296;48.188;11.566;2023-03-29T10:04:18;3.13;;;1.30;;
63201;SDS011;49296;48.188;11.566;2023-03-29T10:06:47;5.03;;;1.48;;
63201;SDS011;49296;48.188;11.566;2023-03-29T10:09:15;4.75;;;1.23;;
63201;SDS011;49296;48.188;11.566;2023-03-29T10:11:45;6.73;;;1.43;;
63201;SDS011;49296;48.188;11.566;2023-03-29T10:14:15;4.20;;;1.10;;
63201;SDS011;49296;48.188;11.566;2023-03-29T10:16:43;2.88;;;1.17;;
63201;SDS011;49296;48.188;11.566;2023-03-29T10:19:15;6.22;;;1.50;;
63201;SDS011;49296;48.188;11.566;2023-03-29T10:21:47;2.95;;;1.30;;
63201;SDS011;49296;48.188;11.566;2023-03-29T10:24:17;5.07;;;1.70;;
63201;SDS011;49296;48.188;11.566;2023-03-29T10:26:44;3.70;;;1.23;;
63201;SDS011;49296;48.188;11.566;2023-03-29T10:29:12;3.08;;;1.27;;
63201;SDS011;49296;48.188;11.566;2023-03-29T10:31:39;2.65;;;1.08;;
63201;SDS011;49296;48.188;11.566;2023-03-29T10:34:08;4.65;;;1.55;;
63201;SDS011;49296;48.188;11.566;2023-03-29T10:36:38;4.13;;;1.20;;
63201;SDS011;49296;48.188;11.566;2023-03-29T10:39:09;4.10;;;1.40;;
63201;SDS011;49296;48.188;11.566;2023-03-29T10:41:40;2.88;;;1.27;;
63201;SDS011;49296;48.188;11.566;2023-03-29T10:44:21;3.22;;;1.35;;
63201;SDS011;49296;48.188;11.566;2023-03-29T10:46:51;3.50;;;1.45;;
63201;SDS011;49296;48.188;11.566;2023-03-29T10:49:19;5.10;;;1.70;;
63201;SDS011;49296;48.188;11.566;2023-03-29T10:51:48;3.35;;;1.15;;
63201;SDS011;49296;48.188;11.566;2023-03-29T10:54:18;2.47;;;1.77;;
63201;SDS011;49296;48.188;11.566;2023-03-29T10:56:48;4.63;;;1.40;;
63201;SDS011;49296;48.188;11.566;2023-03-29T10:59:27;4.53;;;1.83;;
63201;SDS011;49296;48.188;11.566;2023-03-29T11:02:07;3.42;;;1.30;;
63201;SDS011;49296;48.188;11.566;2023-03-29T11:05:09;3.60;;;1.50;;
63201;SDS011;49296;48.188;11.566;2023-03-29T11:07:46;3.80;;;1.30;;
63201;SDS011;49296;48.188;11.566;2023-03-29T11:10:29;5.32;;;1.65;;
63201;SDS011;49296;48.188;11.566;2023-03-29T11:13:08;5.32;;;1.52;;
63201;SDS011;49296;48.188;11.566;2023-03-29T11:15:45;4.35;;;1.40;;
63201;SDS011;49296;48.188;11.566;2023-03-29T11:18:29;3.08;;;1.30;;
63201;SDS011;49296;48.188;11.566;2023-03-29T11:21:10;3.95;;;1.48;;
63201;SDS011;49296;48.188;11.566;2023-03-29T11:23:46;5.25;;;1.50;;
63201;SDS011;49296;48.188;11.566;2023-03-29T11:26:22;3.85;;;1.40;;
63201;SDS011;49296;48.188;11.566;2023-03-29T11:28:51;4.45;;;1.83;;
63201;SDS011;49296;48.188;11.566;2023-03-29T11:31:28;3.03;;;1.38;;
63201;SDS011;49296;48.188;11.566;2023-03-29T11:34:05;4.88;;;1.60;;
63201;SDS011;49296;48.188;11.566;2023-03-29T11:36:42;3.90;;;1.45;;
63201;SDS011;49296;48.188;11.566;2023-03-29T11:39:15;3.45;;;1.23;;
63201;SDS011;49296;48.188;11.566;2023-03-29T11:41:55;3.70;;;1.50;;
63201;SDS011;49296;48.188;11.566;2023-03-29T11:44:28;4.10;;;1.70;;
63201;SDS011;49296;48.188;11.566;2023-03-29T11:46:56;4.35;;;1.42;;
63201;SDS011;49296;48.188;11.566;2023-03-29T11:49:27;4.82;;;1.20;;
63201;SDS011;49296;48.188;11.566;2023-03-29T11:52:00;4.95;;;1.40;;
63201;SDS011;49296;48.188;11.566;2023-03-29T11:54:32;3.40;;;1.23;;
63201;SDS011;49296;48.188;11.566;2023-03-29T11:57:06;3.80;;;1.30;;
63201;SDS011;49296;48.188;11.566;2023-03-29T11:59:42;4.32;;;1.50;;
63201;SDS011;49296;48.188;11.566;2023-03-29T12:02:17;6.63;;;1.60;;
63201;SDS011;49296;48.188;11.566;2023-03-29T12:04:51;3.80;;;1.33;;
63201;SDS011;49296;48.188;11.566;2023-03-29T12:07:25;3.67;;;1.17;;
63201;SDS011;49296;48.188;11.566;2023-03-29T12:09:58;3.15;;;1.10;;
63201;SDS011;49296;48.188;11.566;2023-03-29T12:12:34;4.32;;;1.17;;
63201;SDS011;49296;48.188;11.566;2023-03-29T12:15:10;3.22;;;1.13;;
63201;SDS011;49296;48.188;11.566;2023-03-29T12:17:45;3.95;;;1.20;;
63201;SDS011;49296;48.188;11.566;2023-03-29T12:20:22;2.55;;;1.13;;
63201;SDS011;49296;48.188;11.566;2023-03-29T12:22:52;5.43;;;1.48;;
63201;SDS011;49296;48.188;11.566;2023-03-29T12:25:20;3.63;;;1.30;;
63201;SDS011;49296;48.188;11.566;2023-03-29T12:28:01;4.85;;;1.50;;
63201;SDS011;49296;48.188;11.566;2023-03-29T12:30:42;3.47;;;1.50;;
63201;SDS011;49296;48.188;11.566;2023-03-29T12:33:34;3.75;;;1.83;;
63201;SDS011;49296;48.188;11.566;2023-03-29T12:36:22;3.58;;;1.45;;
63201;SDS011;49296;48.188;11.566;2023-03-29T12:39:09;4.28;;;1.30;;
63201;SDS011;49296;48.188;11.566;2023-03-29T12:41:38;4.30;;;1.60;;
63201;SDS011;49296;48.188;11.566;2023-03-29T12:44:11;6.00;;;1.48;;
63201;SDS011;49296;48.188;11.566;2023-03-29T12:46:40;6.53;;;1.40;;
63201;SDS011;49296;48.188;11.566;2023-03-29T12:49:09;4.88;;;1.40;;
63201;SDS011;49296;48.188;11.566;2023-03-29T12:51:40;6.28;;;1.92;;
63201;SDS011;49296;48.188;11.566;2023-03-29T12:54:10;4.32;;;1.48;;
63201;SDS011;49296;48.188;11.566;2023-03-29T12:56:40;6.55;;;1.30;;
63201;SDS011;49296;48.188;11.566;2023-03-29T12:59:25;4.57;;;1.80;;
63201;SDS011;49296;48.188;11.566;2023-03-29T13:01:59;3.23;;;1.40;;
63201;SDS011;49296;48.188;11.566;2023-03-29T13:04:35;4.70;;;1.55;;
63201;SDS011;49296;48.188;11.566;2023-03-29T13:07:03;4.53;;;1.65;;
63201;SDS011;49296;48.188;11.566;2023-03-29T13:09:32;3.85;;;1.63;;
63201;SDS011;49296;48.188;11.566;2023-03-29T13:12:06;4.57;;;1.80;;
63201;SDS011;49296;48.188;11.566;2023-03-29T13:14:41;3.72;;;1.40;;
63201;SDS011;49296;48.188;11.566;2023-03-29T13:17:23;2.67;;;1.30;;
63201;SDS011;49296;48.188;11.566;2023-03-29T13:19:57;5.95;;;1.70;;
63201;SDS011;49296;48.188;11.566;2023-03-29T13:22:39;4.18;;;1.70;;
63201;SDS011;49296;48.188;11.566;2023-03-29T13:25:16;5.88;;;1.50;;
63201;SDS011;49296;48.188;11.566;2023-03-29T13:30:25;4.25;;;1.50;;
63201;SDS011;49296;48.188;11.566;2023-03-29T13:33:02;3.67;;;1.60;;
63201;SDS011;49296;48.188;11.566;2023-03-29T13:35:44;5.68;;;1.77;;
63201;SDS011;49296;48.188;11.566;2023-03-29T13:38:17;4.97;;;1.88;;
63201;SDS011;49296;48.188;11.566;2023-03-29T13:40:57;4.15;;;1.70;;
63201;SDS011;49296;48.188;11.566;2023-03-29T13:43:30;5.32;;;1.88;;
63201;SDS011;49296;48.188;11.566;2023-03-29T13:46:12;3.75;;;1.90;;
63201;SDS011;49296;48.188;11.566;2023-03-29T13:48:52;3.78;;;1.48;;
63201;SDS011;49296;48.188;11.566;2023-03-29T13:51:32;4.68;;;2.30;;
63201;SDS011;49296;48.188;11.566;2023-03-29T13:54:05;5.75;;;1.65;;
63201;SDS011;49296;48.188;11.566;2023-03-29T13:56:39;3.67;;;1.60;;
63201;SDS011;49296;48.188;11.566;2023-03-29T13:59:24;5.38;;;1.42;;
63201;SDS011;49296;48.188;11.566;2023-03-29T14:01:58;5.38;;;1.95;;
63201;SDS011;49296;48.188;11.566;2023-03-29T14:04:27;2.80;;;1.30;;
63201;SDS011;49296;48.188;11.566;2023-03-29T14:07:01;5.07;;;1.70;;
63201;SDS011;49296;48.188;11.566;2023-03-29T14:09:30;2.63;;;1.25;;
63201;SDS011;49296;48.188;11.566;2023-03-29T14:12:01;4.22;;;1.35;;
63201;SDS011;49296;48.188;11.566;2023-03-29T14:14:28;4.10;;;1.33;;
63201;SDS011;49296;48.188;11.566;2023-03-29T14:16:58;5.65;;;1.30;;
63201;SDS011;49296;48.188;11.566;2023-03-29T14:19:28;2.97;;;1.27;;
63201;SDS011;49296;48.188;11.566;2023-03-29T14:22:00;3.22;;;1.20;;
63201;SDS011;49296;48.188;11.566;2023-03-29T14:24:33;5.03;;;1.63;;
63201;SDS011;49296;48.188;11.566;2023-03-29T14:27:01;5.13;;;1.25;;
63201;SDS011;49296;48.188;11.566;2023-03-29T14:29:30;5.15;;;1.65;;
63201;SDS011;49296;48.188;11.566;2023-03-29T14:32:08;4.18;;;1.38;;
63201;SDS011;49296;48.188;11.566;2023-03-29T14:34:36;5.15;;;1.88;;
63201;SDS011;49296;48.188;11.566;2023-03-29T14:37:03;4.53;;;1.40;;
63201;SDS011;49296;48.188;11.566;2023-03-29T14:39:33;4.00;;;1.45;;
63201;SDS011;49296;48.188;11.566;2023-03-29T14:42:00;5.53;;;1.33;;
63201;SDS011;49296;48.188;11.566;2023-03-29T14:44:28;7.68;;;1.50;;
63201;SDS011;49296;48.188;11.566;2023-03-29T14:46:57;5.00;;;1.55;;
63201;SDS011;49296;48.188;11.566;2023-03-29T14:49:26;3.72;;;1.23;;
63201;SDS011;49296;48.188;11.566;2023-03-29T14:51:53;7.20;;;1.40;;
63201;SDS011;49296;48.188;11.566;2023-03-29T14:54:21;5.63;;;1.50;;
63201;SDS011;49296;48.188;11.566;2023-03-29T14:56:51;5.32;;;1.30;;
63201;SDS011;49296;48.188;11.566;2023-03-29T14:59:22;4.50;;;1.50;;
63201;SDS011;49296;48.188;11.566;2023-03-29T15:01:52;5.30;;;2.30;;
63201;SDS011;49296;48.188;11.566;2023-03-29T15:04:19;5.57;;;1.50;;
63201;SDS011;49296;48.188;11.566;2023-03-29T15:06:47;4.75;;;1.30;;
63201;SDS011;49296;48.188;11.566;2023-03-29T15:09:17;6.30;;;1.40;;